Time;durP1;ratioP1;P1;durP2;ratioP2;P2;SDS_P1;SDS_P2;PMS_P1;PMS_P2;Temp;Humidity;BMP_temperature;BMP_pressure;BME280_temperature;BME280_humidity;BME280_pressure;Samples;Min_cycle;Max_cycle;Signal;HPM_P1;HPM_P2
2023/07/12 05:49:47;;;;;;;2.42;1.40;;;;;;;;;;10576463;27;20407;-86
2023/07/12 05:54:48;;;;;;;4.63;1.60;;;;;;;;;;10540861;28;20032;-87
2023/07/12 05:59:49;;;;;;;2.53;1.60;;;;;;;;;;10538655;28;20024;-86
2023/07/12 06:04:50;;;;;;;4.68;2.00;;;;;;;;;;10537951;28;20023;-86
2023/07/12 06:09:51;;;;;;;2.47;1.52;;;;;;;;;;10537716;28;20393;-85
2023/07/12 06:14:52;;;;;;;2.63;1.52;;;;;;;;;;10539711;28;20025;-86
2023/07/12 06:19:53;;;;;;;1.90;1.20;;;;;;;;;;10535982;28;20024;-85
2023/07/12 06:24:54;;;;;;;5.85;2.80;;;;;;;;;;10537083;28;20052;-86
2023/07/12 06:29:55;;;;;;;4.28;2.13;;;;;;;;;;10536863;28;20028;-86
2023/07/12 06:34:57;;;;;;;4.80;2.50;;;;;;;;;;10537677;28;20032;-85
2023/07/12 06:39:58;;;;;;;4.65;2.63;;;;;;;;;;10544208;28;20551;-86
2023/07/12 06:44:59;;;;;;;2.83;1.70;;;;;;;;;;10536297;28;20484;-86
2023/07/12 06:50:00;;;;;;;4.18;2.42;;;;;;;;;;10536818;28;20051;-86
2023/07/12 06:55:03;;;;;;;4.18;2.13;;;;;;;;;;10562078;28;20032;-86
2023/07/12 07:00:09;;;;;;;5.68;2.78;;;;;;;;;;10538008;28;20379;-87
2023/07/12 07:05:14;;;;;;;;;;;;;;;;;;10512791;28;20033;-84
2023/07/12 07:10:23;;;;;;;3.70;2.03;;;;;;;;;;10508744;28;20319;-86
2023/07/12 07:15:25;;;;;;;3.93;2.03;;;;;;;;;;10514505;28;20025;-84
2023/07/12 07:20:27;;;;;;;3.80;1.98;;;;;;;;;;10510922;28;20024;-84
2023/07/12 07:25:30;;;;;;;3.92;2.30;;;;;;;;;;10509475;28;20009;-84
2023/07/12 07:30:31;;;;;;;4.55;3.10;;;;;;;;;;10512931;28;20115;-86
2023/07/12 07:35:32;;;;;;;8.00;3.70;;;;;;;;;;10527742;28;20081;-85
2023/07/12 07:40:39;;;;;;;3.90;2.20;;;;;;;;;;10553033;28;20060;-84
2023/07/12 07:45:41;;;;;;;4.88;2.30;;;;;;;;;;10530544;28;20115;-84
2023/07/12 07:50:43;;;;;;;3.75;2.42;;;;;;;;;;10516994;28;20027;-85
2023/07/12 07:55:44;;;;;;;3.72;2.30;;;;;;;;;;10509720;28;20081;-84
2023/07/12 08:00:46;;;;;;;6.90;2.97;;;;;;;;;;10509658;28;20020;-84
2023/07/12 08:05:47;;;;;;;9.20;7.18;;;;;;;;;;10510113;28;20020;-84
2023/07/12 08:10:48;;;;;;;7.10;4.55;;;;;;;;;;10507658;28;20020;-86
2023/07/12 08:15:51;;;;;;;4.22;3.40;;;;;;;;;;10509573;28;20131;-84
2023/07/12 08:20:55;;;;;;;7.25;4.50;;;;;;;;;;10511974;28;20077;-85
2023/07/12 08:25:57;;;;;;;6.18;3.85;;;;;;;;;;10510894;28;20024;-84
2023/07/12 08:30:58;;;;;;;5.22;4.22;;;;;;;;;;10508273;28;20035;-86
2023/07/12 08:36:21;;;;;;;6.10;4.15;;;;;;;;;;10504582;28;20028;-84
2023/07/12 08:41:26;;;;;;;6.72;3.33;;;;;;;;;;10513331;28;20037;-84
2023/07/12 08:46:30;;;;;;;5.80;4.03;;;;;;;;;;10511428;28;20045;-85
2023/07/12 08:51:35;;;;;;;6.60;4.10;;;;;;;;;;10492779;28;20024;-85
2023/07/12 08:56:36;;;;;;;4.55;2.42;;;;;;;;;;10510655;28;20024;-82
2023/07/12 09:01:45;;;;;;;5.40;2.03;;;;;;;;;;10511696;28;20024;-84
2023/07/12 09:06:46;;;;;;;4.18;3.03;;;;;;;;;;10511441;28;20562;-85
2023/07/12 09:11:47;;;;;;;4.47;2.50;;;;;;;;;;10511780;28;20129;-84
2023/07/12 09:16:49;;;;;;;4.68;2.05;;;;;;;;;;10511381;28;20100;-85
2023/07/12 09:21:54;;;;;;;5.85;2.80;;;;;;;;;;10513135;28;20020;-85
2023/07/12 09:27:30;;;;;;;3.25;2.13;;;;;;;;;;10515325;28;20103;-86
2023/07/12 09:32:35;;;;;;;4.38;3.05;;;;;;;;;;10504602;28;20036;-84
2023/07/12 09:37:40;;;;;;;4.75;2.67;;;;;;;;;;10541187;28;20104;-84
2023/07/12 09:42:47;;;;;;;3.20;2.08;;;;;;;;;;10537719;28;20037;-83
2023/07/12 09:47:49;;;;;;;4.82;2.50;;;;;;;;;;10520358;28;20039;-84
2023/07/12 09:52:58;;;;;;;4.22;2.10;;;;;;;;;;10515852;28;20505;-84
2023/07/12 09:58:09;;;;;;;6.97;1.80;;;;;;;;;;10514651;28;20047;-82
2023/07/12 10:03:11;;;;;;;4.38;1.95;;;;;;;;;;10525436;28;20332;-84
2023/07/12 10:08:14;;;;;;;3.50;1.77;;;;;;;;;;10524479;28;20031;-84
2023/07/12 10:13:18;;;;;;;3.92;1.80;;;;;;;;;;10515474;28;20021;-82
2023/07/12 10:18:22;;;;;;;2.72;1.70;;;;;;;;;;10512985;28;20453;-83
2023/07/12 10:23:25;;;;;;;3.55;1.50;;;;;;;;;;10513010;28;20108;-84
2023/07/12 10:28:33;;;;;;;4.50;1.80;;;;;;;;;;10515359;28;20021;-83
2023/07/12 10:33:38;;;;;;;4.50;2.03;;;;;;;;;;10517383;28;20032;-83
2023/07/12 10:38:39;;;;;;;3.97;2.10;;;;;;;;;;10520936;28;20624;-83
2023/07/12 10:43:43;;;;;;;8.18;5.28;;;;;;;;;;10521807;28;20048;-82
2023/07/12 10:48:47;;;;;;;5.22;2.42;;;;;;;;;;10522189;28;20029;-82
2023/07/12 10:53:50;;;;;;;3.15;1.80;;;;;;;;;;10525337;28;20044;-82
2023/07/12 10:59:01;;;;;;;2.95;1.73;;;;;;;;;;10518768;28;20024;-84
2023/07/12 11:04:10;;;;;;;4.30;2.10;;;;;;;;;;10519809;28;20021;-83
2023/07/12 11:09:11;;;;;;;4.63;1.80;;;;;;;;;;10518082;28;20034;-84
2023/07/12 11:14:20;;;;;;;4.07;1.80;;;;;;;;;;10518337;28;20031;-84
2023/07/12 11:19:35;;;;;;;3.60;2.07;;;;;;;;;;10518454;28;20538;-84
2023/07/12 11:24:37;;;;;;;7.13;4.70;;;;;;;;;;10517724;28;20031;-84
2023/07/12 11:29:46;;;;;;;4.78;2.35;;;;;;;;;;10517113;28;20103;-85
2023/07/12 11:34:48;;;;;;;3.20;1.80;;;;;;;;;;10519247;28;20036;-85
2023/07/12 11:39:53;;;;;;;4.25;2.67;;;;;;;;;;10516815;28;20070;-85
2023/07/12 11:45:05;;;;;;;4.13;2.10;;;;;;;;;;10519969;28;20099;-85
2023/07/12 11:50:06;;;;;;;5.50;2.10;;;;;;;;;;10515426;28;20024;-82
2023/07/12 11:55:13;;;;;;;2.97;1.75;;;;;;;;;;10508554;28;20391;-80
2023/07/12 12:00:21;;;;;;;5.75;2.13;;;;;;;;;;10509001;28;20508;-85
2023/07/12 12:05:31;;;;;;;3.78;1.80;;;;;;;;;;10490274;28;20104;-87
2023/07/12 12:16:38;;;;;;;4.10;1.80;;;;;;;;;;10508189;28;20016;-87
2023/07/12 12:21:53;;;;;;;4.70;2.10;;;;;;;;;;10506997;28;20031;-88
2023/07/12 12:27:21;;;;;;;3.88;1.80;;;;;;;;;;10509602;28;20040;-87
2023/07/12 12:33:08;;;;;;;4.00;2.05;;;;;;;;;;10506684;28;20029;-87
2023/07/12 12:38:31;;;;;;;;;;;;;;;;;;10510152;28;20044;-86
2023/07/12 12:43:37;;;;;;;4.03;2.70;;;;;;;;;;10507060;28;19905;-86
2023/07/12 12:54:34;;;;;;;6.32;3.78;;;;;;;;;;10510030;28;20259;-87
2023/07/12 12:59:47;;;;;;;3.15;1.50;;;;;;;;;;10527864;28;20044;-86
2023/07/12 13:05:33;;;;;;;3.85;1.40;;;;;;;;;;10538999;28;20036;-87
2023/07/12 13:10:35;;;;;;;4.70;1.70;;;;;;;;;;10520559;28;20025;-87
2023/07/12 13:15:39;;;;;;;4.05;2.80;;;;;;;;;;10504960;28;20074;-87
2023/07/12 13:20:42;;;;;;;3.10;2.00;;;;;;;;;;10508315;28;20162;-87
2023/07/12 13:25:50;;;;;;;3.85;1.33;;;;;;;;;;10505141;28;20024;-87
2023/07/12 13:30:55;;;;;;;4.32;1.45;;;;;;;;;;10506039;28;20024;-87
2023/07/12 13:35:56;;;;;;;3.33;1.45;;;;;;;;;;10517322;28;20382;-87
2023/07/12 13:41:00;;;;;;;6.03;1.50;;;;;;;;;;10508083;28;20042;-87
2023/07/12 13:46:09;;;;;;;3.47;1.45;;;;;;;;;;10505421;28;20039;-87
2023/07/12 13:51:20;;;;;;;2.20;1.70;;;;;;;;;;10504225;28;20023;-86
2023/07/12 13:56:21;;;;;;;2.35;1.20;;;;;;;;;;10503686;28;20134;-87
2023/07/12 14:01:25;;;;;;;4.05;1.50;;;;;;;;;;10504116;28;20383;-87
2023/07/12 14:06:27;;;;;;;3.33;1.15;;;;;;;;;;10501832;28;20493;-87
2023/07/12 14:11:29;;;;;;;3.08;1.50;;;;;;;;;;10510423;28;20021;-87
2023/07/12 14:16:33;;;;;;;3.67;1.30;;;;;;;;;;10511355;28;20450;-87
2023/07/12 14:21:34;;;;;;;4.70;2.53;;;;;;;;;;10510023;28;20082;-87
2023/07/12 14:26:55;;;;;;;4.22;1.70;;;;;;;;;;10532811;28;20052;-86
2023/07/12 14:32:31;;;;;;;3.20;1.92;;;;;;;;;;10499774;28;20033;-87
2023/07/12 14:37:48;;;;;;;2.78;1.35;;;;;;;;;;10511190;28;20020;-87
2023/07/12 14:42:49;;;;;;;2.47;1.50;;;;;;;;;;10508623;28;20028;-86
2023/07/12 14:47:50;;;;;;;2.50;1.85;;;;;;;;;;10510034;28;20167;-87
2023/07/12 14:52:51;;;;;;;6.78;2.20;;;;;;;;;;10508863;28;20439;-87
2023/07/12 14:57:52;;;;;;;3.00;1.90;;;;;;;;;;10507841;28;20040;-87
2023/07/12 15:02:57;;;;;;;5.13;2.85;;;;;;;;;;10507454;28;20044;-87
2023/07/12 15:07:58;;;;;;;5.80;2.40;;;;;;;;;;10508067;28;20036;-86
2023/07/12 15:13:02;;;;;;;4.40;2.42;;;;;;;;;;10510835;28;20023;-87
2023/07/12 15:18:17;;;;;;;3.72;1.70;;;;;;;;;;10507957;28;20024;-86
2023/07/12 15:23:23;;;;;;;2.33;1.40;;;;;;;;;;10508886;28;20450;-86
2023/07/12 15:28:24;;;;;;;2.72;1.30;;;;;;;;;;10507433;28;20035;-86
2023/07/12 15:33:27;;;;;;;1.95;1.20;;;;;;;;;;10509859;28;20032;-87
2023/07/12 15:38:29;;;;;;;4.50;1.70;;;;;;;;;;10532275;28;20080;-84
2023/07/12 15:43:30;;;;;;;3.25;1.50;;;;;;;;;;10552869;28;20051;-81
2023/07/12 15:48:32;;;;;;;3.00;1.40;;;;;;;;;;10522697;28;20039;-87
2023/07/12 15:53:34;;;;;;;3.83;1.10;;;;;;;;;;10511409;28;20027;-86
2023/07/12 15:58:36;;;;;;;2.72;1.52;;;;;;;;;;10509014;28;20128;-86
2023/07/12 16:03:37;;;;;;;3.75;1.38;;;;;;;;;;10509088;28;20032;-87
2023/07/12 16:08:38;;;;;;;5.00;1.85;;;;;;;;;;10509925;28;20029;-87
2023/07/12 16:13:40;;;;;;;7.25;2.00;;;;;;;;;;10508990;28;20024;-87
2023/07/12 16:18:41;;;;;;;2.80;1.65;;;;;;;;;;10514019;28;20034;-86
2023/07/12 16:23:44;;;;;;;3.65;1.50;;;;;;;;;;10538870;28;20024;-87
2023/07/12 16:28:45;;;;;;;3.88;1.70;;;;;;;;;;10511019;28;20025;-86
2023/07/12 16:33:46;;;;;;;4.85;1.80;;;;;;;;;;10505210;28;20021;-87
2023/07/12 16:38:48;;;;;;;5.47;2.00;;;;;;;;;;10505242;28;20458;-87
2023/07/12 16:43:49;;;;;;;5.18;2.00;;;;;;;;;;10505134;28;20025;-87
2023/07/12 16:48:51;;;;;;;4.40;2.00;;;;;;;;;;10504998;28;20107;-87
2023/07/12 16:53:52;;;;;;;4.50;2.00;;;;;;;;;;10503920;28;20024;-87
2023/07/12 16:58:54;;;;;;;3.83;1.48;;;;;;;;;;10505505;28;20032;-88
2023/07/12 17:03:57;;;;;;;3.85;1.90;;;;;;;;;;10503039;28;20394;-87
2023/07/12 17:08:58;;;;;;;5.00;1.73;;;;;;;;;;10503187;28;20021;-87
2023/07/12 17:13:59;;;;;;;4.45;1.95;;;;;;;;;;10505185;28;20024;-87
2023/07/12 17:19:11;;;;;;;5.95;1.88;;;;;;;;;;10505440;28;20028;-87
2023/07/12 17:24:15;;;;;;;3.40;1.63;;;;;;;;;;10503785;28;20038;-87
2023/07/12 17:29:18;;;;;;;3.35;1.77;;;;;;;;;;10499859;28;20040;-87
2023/07/12 17:34:32;;;;;;;7.63;1.77;;;;;;;;;;10501915;28;20052;-87
2023/07/12 17:39:34;;;;;;;3.75;1.60;;;;;;;;;;10503466;28;20054;-87
2023/07/12 17:44:36;;;;;;;4.93;1.88;;;;;;;;;;10504065;28;20025;-87
2023/07/12 17:49:37;;;;;;;5.18;1.80;;;;;;;;;;10503784;28;20170;-87
